sensor_id;sensor_type;location;lat;lon;timestamp;P1;durP1;ratioP1;P2;durP2;ratioP2
57055;SDS011;42945;51.718;5.324;2022-08-25T00:01:59;8.77;;;5.77;;
57055;SDS011;42945;51.718;5.324;2022-08-25T00:07:51;7.37;;;6.27;;
57055;SDS011;42945;51.718;5.324;2022-08-25T00:13:40;8.70;;;6.60;;
57055;SDS011;42945;51.718;5.324;2022-08-25T00:19:32;7.93;;;6.43;;
57055;SDS011;42945;51.718;5.324;2022-08-25T00:29:23;7.47;;;6.68;;
57055;SDS011;42945;51.718;5.324;2022-08-25T00:35:14;10.68;;;7.63;;
57055;SDS011;42945;51.718;5.324;2022-08-25T00:41:02;11.65;;;7.80;;
57055;SDS011;42945;51.718;5.324;2022-08-25T00:46:54;11.20;;;7.85;;
57055;SDS011;42945;51.718;5.324;2022-08-25T00:52:49;12.13;;;8.32;;
57055;SDS011;42945;51.718;5.324;2022-08-25T00:58:40;16.40;;;9.13;;
57055;SDS011;42945;51.718;5.324;2022-08-25T01:04:30;11.35;;;9.65;;
57055;SDS011;42945;51.718;5.324;2022-08-25T01:10:20;12.07;;;9.33;;
57055;SDS011;42945;51.718;5.324;2022-08-25T01:16:09;12.60;;;9.07;;
57055;SDS011;42945;51.718;5.324;2022-08-25T01:22:00;12.95;;;9.68;;
57055;SDS011;42945;51.718;5.324;2022-08-25T01:31:49;14.07;;;10.23;;
57055;SDS011;42945;51.718;5.324;2022-08-25T01:37:43;13.82;;;10.15;;
57055;SDS011;42945;51.718;5.324;2022-08-25T01:43:36;13.37;;;10.40;;
57055;SDS011;42945;51.718;5.324;2022-08-25T01:49:25;21.37;;;11.10;;
57055;SDS011;42945;51.718;5.324;2022-08-25T01:55:12;16.40;;;11.20;;
57055;SDS011;42945;51.718;5.324;2022-08-25T02:01:01;13.80;;;10.77;;
57055;SDS011;42945;51.718;5.324;2022-08-25T02:06:52;16.08;;;11.50;;
57055;SDS011;42945;51.718;5.324;2022-08-25T02:12:41;12.17;;;10.90;;
57055;SDS011;42945;51.718;5.324;2022-08-25T02:18:29;13.38;;;10.50;;
57055;SDS011;42945;51.718;5.324;2022-08-25T02:24:17;16.63;;;10.75;;
57055;SDS011;42945;51.718;5.324;2022-08-25T02:34:07;12.45;;;8.93;;
57055;SDS011;42945;51.718;5.324;2022-08-25T02:39:56;13.02;;;9.40;;
57055;SDS011;42945;51.718;5.324;2022-08-25T02:45:45;13.27;;;8.60;;
57055;SDS011;42945;51.718;5.324;2022-08-25T02:51:33;10.93;;;8.75;;
57055;SDS011;42945;51.718;5.324;2022-08-25T02:57:23;12.52;;;8.63;;
57055;SDS011;42945;51.718;5.324;2022-08-25T03:03:11;11.68;;;8.70;;
57055;SDS011;42945;51.718;5.324;2022-08-25T03:09:00;14.27;;;9.00;;
57055;SDS011;42945;51.718;5.324;2022-08-25T03:14:48;15.68;;;9.13;;
57055;SDS011;42945;51.718;5.324;2022-08-25T03:20:37;12.93;;;9.00;;
57055;SDS011;42945;51.718;5.324;2022-08-25T03:26:25;14.37;;;9.53;;
57055;SDS011;42945;51.718;5.324;2022-08-25T03:36:32;14.70;;;10.20;;
57055;SDS011;42945;51.718;5.324;2022-08-25T03:42:21;17.25;;;9.98;;
57055;SDS011;42945;51.718;5.324;2022-08-25T03:48:08;14.35;;;9.70;;
57055;SDS011;42945;51.718;5.324;2022-08-25T03:53:57;19.57;;;9.93;;
57055;SDS011;42945;51.718;5.324;2022-08-25T03:59:46;22.10;;;9.80;;
57055;SDS011;42945;51.718;5.324;2022-08-25T04:05:34;15.75;;;9.90;;
57055;SDS011;42945;51.718;5.324;2022-08-25T04:11:24;14.25;;;10.02;;
57055;SDS011;42945;51.718;5.324;2022-08-25T04:17:15;15.03;;;9.77;;
57055;SDS011;42945;51.718;5.324;2022-08-25T04:23:04;14.82;;;9.90;;
57055;SDS011;42945;51.718;5.324;2022-08-25T04:28:53;14.98;;;9.52;;
57055;SDS011;42945;51.718;5.324;2022-08-25T04:38:42;14.43;;;9.15;;
57055;SDS011;42945;51.718;5.324;2022-08-25T04:44:32;16.80;;;9.13;;
57055;SDS011;42945;51.718;5.324;2022-08-25T04:50:20;16.07;;;9.13;;
57055;SDS011;42945;51.718;5.324;2022-08-25T04:56:09;15.27;;;8.87;;
57055;SDS011;42945;51.718;5.324;2022-08-25T05:01:59;15.63;;;8.77;;
57055;SDS011;42945;51.718;5.324;2022-08-25T05:07:48;18.57;;;8.93;;
57055;SDS011;42945;51.718;5.324;2022-08-25T05:13:36;16.80;;;8.77;;
57055;SDS011;42945;51.718;5.324;2022-08-25T05:19:23;13.43;;;8.77;;
57055;SDS011;42945;51.718;5.324;2022-08-25T05:25:12;16.90;;;8.67;;
57055;SDS011;42945;51.718;5.324;2022-08-25T05:31:03;16.70;;;8.10;;
57055;SDS011;42945;51.718;5.324;2022-08-25T05:40:51;16.75;;;7.63;;
57055;SDS011;42945;51.718;5.324;2022-08-25T05:46:52;14.73;;;7.80;;
57055;SDS011;42945;51.718;5.324;2022-08-25T05:52:42;12.63;;;7.85;;
57055;SDS011;42945;51.718;5.324;2022-08-25T05:58:33;13.13;;;7.82;;
57055;SDS011;42945;51.718;5.324;2022-08-25T06:04:22;15.45;;;8.52;;
57055;SDS011;42945;51.718;5.324;2022-08-25T06:10:10;13.95;;;8.70;;
57055;SDS011;42945;51.718;5.324;2022-08-25T06:15:59;15.33;;;8.93;;
57055;SDS011;42945;51.718;5.324;2022-08-25T06:21:48;21.58;;;9.48;;
57055;SDS011;42945;51.718;5.324;2022-08-25T06:27:40;15.63;;;8.68;;
57055;SDS011;42945;51.718;5.324;2022-08-25T06:33:28;11.30;;;8.07;;
57055;SDS011;42945;51.718;5.324;2022-08-25T06:43:04;15.80;;;8.65;;
57055;SDS011;42945;51.718;5.324;2022-08-25T06:48:55;17.80;;;8.45;;
57055;SDS011;42945;51.718;5.324;2022-08-25T06:54:43;19.65;;;8.48;;
57055;SDS011;42945;51.718;5.324;2022-08-25T07:00:32;10.88;;;7.93;;
57055;SDS011;42945;51.718;5.324;2022-08-25T07:06:22;12.52;;;7.53;;
57055;SDS011;42945;51.718;5.324;2022-08-25T07:12:10;12.50;;;7.20;;
57055;SDS011;42945;51.718;5.324;2022-08-25T07:17:58;15.48;;;7.20;;
57055;SDS011;42945;51.718;5.324;2022-08-25T07:23:46;19.42;;;7.03;;
57055;SDS011;42945;51.718;5.324;2022-08-25T07:29:34;11.00;;;5.50;;
57055;SDS011;42945;51.718;5.324;2022-08-25T07:35:25;13.60;;;5.60;;
57055;SDS011;42945;51.718;5.324;2022-08-25T07:45:07;8.07;;;4.80;;
57055;SDS011;42945;51.718;5.324;2022-08-25T07:50:57;13.00;;;4.60;;
57055;SDS011;42945;51.718;5.324;2022-08-25T07:56:45;12.98;;;4.78;;
57055;SDS011;42945;51.718;5.324;2022-08-25T08:02:32;11.88;;;4.25;;
57055;SDS011;42945;51.718;5.324;2022-08-25T08:08:20;12.23;;;4.35;;
57055;SDS011;42945;51.718;5.324;2022-08-25T08:14:09;7.40;;;4.13;;
57055;SDS011;42945;51.718;5.324;2022-08-25T08:19:59;13.63;;;4.18;;
57055;SDS011;42945;51.718;5.324;2022-08-25T08:25:48;10.27;;;3.72;;
57055;SDS011;42945;51.718;5.324;2022-08-25T08:31:36;9.43;;;3.60;;
57055;SDS011;42945;51.718;5.324;2022-08-25T08:37:23;6.18;;;3.42;;
57055;SDS011;42945;51.718;5.324;2022-08-25T08:47:10;9.02;;;3.85;;
57055;SDS011;42945;51.718;5.324;2022-08-25T08:53:12;9.50;;;3.47;;
57055;SDS011;42945;51.718;5.324;2022-08-25T08:59:05;12.68;;;3.70;;
57055;SDS011;42945;51.718;5.324;2022-08-25T09:05:06;6.60;;;3.33;;
57055;SDS011;42945;51.718;5.324;2022-08-25T09:17:00;17.33;;;3.33;;
57055;SDS011;42945;51.718;5.324;2022-08-25T09:29:00;10.95;;;3.00;;
57055;SDS011;42945;51.718;5.324;2022-08-25T09:34:56;11.65;;;2.95;;
57055;SDS011;42945;51.718;5.324;2022-08-25T09:40:47;8.30;;;2.88;;
57055;SDS011;42945;51.718;5.324;2022-08-25T09:46:38;5.55;;;2.45;;
57055;SDS011;42945;51.718;5.324;2022-08-25T09:52:31;5.43;;;2.60;;
57055;SDS011;42945;51.718;5.324;2022-08-25T09:58:27;7.15;;;2.70;;
57055;SDS011;42945;51.718;5.324;2022-08-25T10:04:26;10.88;;;2.90;;
57055;SDS011;42945;51.718;5.324;2022-08-25T10:10:16;2.50;;;2.28;;
57055;SDS011;42945;51.718;5.324;2022-08-25T10:16:24;7.05;;;2.38;;
57055;SDS011;42945;51.718;5.324;2022-08-25T10:22:21;4.75;;;2.35;;
57055;SDS011;42945;51.718;5.324;2022-08-25T10:28:20;9.02;;;2.65;;
57055;SDS011;42945;51.718;5.324;2022-08-25T10:40:40;4.80;;;2.17;;
57055;SDS011;42945;51.718;5.324;2022-08-25T10:50:43;4.25;;;1.92;;
57055;SDS011;42945;51.718;5.324;2022-08-25T11:08:55;5.47;;;1.67;;
57055;SDS011;42945;51.718;5.324;2022-08-25T11:21:05;5.43;;;1.90;;
57055;SDS011;42945;51.718;5.324;2022-08-25T11:32:49;7.78;;;2.03;;
57055;SDS011;42945;51.718;5.324;2022-08-25T12:09:14;3.75;;;1.80;;
57055;SDS011;42945;51.718;5.324;2022-08-25T12:14:50;3.03;;;1.80;;
57055;SDS011;42945;51.718;5.324;2022-08-25T12:26:45;6.65;;;1.98;;
57055;SDS011;42945;51.718;5.324;2022-08-25T12:56:37;3.13;;;1.73;;
57055;SDS011;42945;51.718;5.324;2022-08-25T13:15:04;5.00;;;2.05;;
57055;SDS011;42945;51.718;5.324;2022-08-25T13:20:53;3.65;;;1.67;;
57055;SDS011;42945;51.718;5.324;2022-08-25T13:26:51;2.88;;;1.80;;
57055;SDS011;42945;51.718;5.324;2022-08-25T13:32:41;3.20;;;1.60;;
57055;SDS011;42945;51.718;5.324;2022-08-25T13:38:29;2.90;;;1.52;;
57055;SDS011;42945;51.718;5.324;2022-08-25T13:44:19;3.92;;;1.80;;
57055;SDS011;42945;51.718;5.324;2022-08-25T13:56:25;4.35;;;2.05;;
57055;SDS011;42945;51.718;5.324;2022-08-25T14:08:31;4.35;;;1.83;;
57055;SDS011;42945;51.718;5.324;2022-08-25T14:20:17;3.67;;;1.63;;
57055;SDS011;42945;51.718;5.324;2022-08-25T14:26:08;7.07;;;2.20;;
57055;SDS011;42945;51.718;5.324;2022-08-25T14:31:57;3.33;;;2.20;;
57055;SDS011;42945;51.718;5.324;2022-08-25T14:37:46;6.70;;;2.00;;
57055;SDS011;42945;51.718;5.324;2022-08-25T14:43:35;5.00;;;1.70;;
57055;SDS011;42945;51.718;5.324;2022-08-25T14:53:11;3.45;;;1.67;;
57055;SDS011;42945;51.718;5.324;2022-08-25T14:58:59;2.90;;;1.80;;
57055;SDS011;42945;51.718;5.324;2022-08-25T15:04:54;6.43;;;1.92;;
57055;SDS011;42945;51.718;5.324;2022-08-25T15:16:44;5.90;;;1.90;;
57055;SDS011;42945;51.718;5.324;2022-08-25T15:22:34;7.57;;;1.50;;
57055;SDS011;42945;51.718;5.324;2022-08-25T15:28:22;9.00;;;2.95;;
57055;SDS011;42945;51.718;5.324;2022-08-25T15:34:11;5.60;;;2.00;;
57055;SDS011;42945;51.718;5.324;2022-08-25T15:40:00;5.18;;;1.95;;
57055;SDS011;42945;51.718;5.324;2022-08-25T15:45:49;3.60;;;1.95;;
57055;SDS011;42945;51.718;5.324;2022-08-25T15:55:32;6.65;;;2.00;;
57055;SDS011;42945;51.718;5.324;2022-08-25T16:01:26;3.63;;;1.52;;
57055;SDS011;42945;51.718;5.324;2022-08-25T16:07:16;6.43;;;1.90;;
57055;SDS011;42945;51.718;5.324;2022-08-25T16:13:05;7.78;;;2.10;;
57055;SDS011;42945;51.718;5.324;2022-08-25T16:18:54;14.60;;;2.00;;
57055;SDS011;42945;51.718;5.324;2022-08-25T16:24:42;2.67;;;1.70;;
57055;SDS011;42945;51.718;5.324;2022-08-25T16:30:45;8.75;;;1.90;;
57055;SDS011;42945;51.718;5.324;2022-08-25T16:36:33;4.72;;;2.00;;
57055;SDS011;42945;51.718;5.324;2022-08-25T16:42:22;7.40;;;2.10;;
57055;SDS011;42945;51.718;5.324;2022-08-25T16:48:11;3.25;;;1.60;;
57055;SDS011;42945;51.718;5.324;2022-08-25T16:57:49;5.18;;;1.90;;
57055;SDS011;42945;51.718;5.324;2022-08-25T17:03:40;3.60;;;1.85;;
57055;SDS011;42945;51.718;5.324;2022-08-25T17:09:29;6.35;;;2.45;;
57055;SDS011;42945;51.718;5.324;2022-08-25T17:15:17;8.40;;;2.22;;
57055;SDS011;42945;51.718;5.324;2022-08-25T17:21:10;4.05;;;2.30;;
57055;SDS011;42945;51.718;5.324;2022-08-25T17:27:00;3.92;;;1.88;;
57055;SDS011;42945;51.718;5.324;2022-08-25T17:32:47;5.10;;;2.30;;
57055;SDS011;42945;51.718;5.324;2022-08-25T17:38:38;4.60;;;2.35;;
57055;SDS011;42945;51.718;5.324;2022-08-25T17:44:26;6.97;;;2.83;;
57055;SDS011;42945;51.718;5.324;2022-08-25T17:50:18;9.15;;;6.10;;
57055;SDS011;42945;51.718;5.324;2022-08-25T18:00:03;14.25;;;7.80;;
57055;SDS011;42945;51.718;5.324;2022-08-25T18:17:34;10.80;;;7.53;;
57055;SDS011;42945;51.718;5.324;2022-08-25T18:23:26;11.18;;;6.55;;
57055;SDS011;42945;51.718;5.324;2022-08-25T18:29:15;15.38;;;11.93;;
57055;SDS011;42945;51.718;5.324;2022-08-25T18:35:03;23.70;;;16.23;;
57055;SDS011;42945;51.718;5.324;2022-08-25T18:40:56;34.65;;;22.23;;
57055;SDS011;42945;51.718;5.324;2022-08-25T18:46:45;51.20;;;26.20;;
57055;SDS011;42945;51.718;5.324;2022-08-25T18:52:36;37.72;;;27.98;;
57055;SDS011;42945;51.718;5.324;2022-08-25T19:02:24;44.17;;;32.20;;
57055;SDS011;42945;51.718;5.324;2022-08-25T19:08:13;40.80;;;31.80;;
57055;SDS011;42945;51.718;5.324;2022-08-25T19:14:02;47.55;;;32.55;;
57055;SDS011;42945;51.718;5.324;2022-08-25T19:19:51;45.00;;;34.78;;
57055;SDS011;42945;51.718;5.324;2022-08-25T19:25:39;55.60;;;37.90;;
57055;SDS011;42945;51.718;5.324;2022-08-25T19:31:29;56.47;;;37.38;;
57055;SDS011;42945;51.718;5.324;2022-08-25T19:37:23;58.63;;;44.50;;
57055;SDS011;42945;51.718;5.324;2022-08-25T19:43:18;60.93;;;43.93;;
57055;SDS011;42945;51.718;5.324;2022-08-25T19:49:12;60.90;;;46.50;;
57055;SDS011;42945;51.718;5.324;2022-08-25T19:55:09;60.47;;;42.00;;
57055;SDS011;42945;51.718;5.324;2022-08-25T20:04:58;54.53;;;40.23;;
57055;SDS011;42945;51.718;5.324;2022-08-25T20:10:46;61.97;;;43.97;;
57055;SDS011;42945;51.718;5.324;2022-08-25T20:16:34;59.90;;;43.15;;
57055;SDS011;42945;51.718;5.324;2022-08-25T20:22:28;62.88;;;42.95;;
57055;SDS011;42945;51.718;5.324;2022-08-25T20:28:20;62.40;;;38.75;;
57055;SDS011;42945;51.718;5.324;2022-08-25T20:34:10;61.13;;;41.38;;
57055;SDS011;42945;51.718;5.324;2022-08-25T20:40:02;47.42;;;30.77;;
57055;SDS011;42945;51.718;5.324;2022-08-25T20:45:58;46.72;;;31.60;;
57055;SDS011;42945;51.718;5.324;2022-08-25T20:51:48;44.45;;;27.83;;
57055;SDS011;42945;51.718;5.324;2022-08-25T20:57:38;43.35;;;25.27;;
57055;SDS011;42945;51.718;5.324;2022-08-25T21:07:28;39.10;;;22.27;;
57055;SDS011;42945;51.718;5.324;2022-08-25T21:13:16;30.75;;;17.23;;
57055;SDS011;42945;51.718;5.324;2022-08-25T21:19:05;41.73;;;24.77;;
57055;SDS011;42945;51.718;5.324;2022-08-25T21:24:58;37.00;;;22.70;;
57055;SDS011;42945;51.718;5.324;2022-08-25T21:30:45;48.17;;;24.02;;
57055;SDS011;42945;51.718;5.324;2022-08-25T21:36:34;42.55;;;22.88;;
57055;SDS011;42945;51.718;5.324;2022-08-25T21:42:23;36.53;;;21.52;;
57055;SDS011;42945;51.718;5.324;2022-08-25T21:48:11;39.70;;;21.70;;
57055;SDS011;42945;51.718;5.324;2022-08-25T21:54:01;41.25;;;21.27;;
57055;SDS011;42945;51.718;5.324;2022-08-25T21:59:57;36.83;;;18.40;;
57055;SDS011;42945;51.718;5.324;2022-08-25T22:09:47;32.70;;;17.15;;
57055;SDS011;42945;51.718;5.324;2022-08-25T22:15:37;29.85;;;16.02;;
57055;SDS011;42945;51.718;5.324;2022-08-25T22:21:26;33.67;;;18.80;;
57055;SDS011;42945;51.718;5.324;2022-08-25T22:27:14;32.10;;;15.70;;
57055;SDS011;42945;51.718;5.324;2022-08-25T22:33:04;39.25;;;16.40;;
57055;SDS011;42945;51.718;5.324;2022-08-25T22:38:52;28.20;;;13.20;;
57055;SDS011;42945;51.718;5.324;2022-08-25T22:44:41;35.97;;;14.30;;
57055;SDS011;42945;51.718;5.324;2022-08-25T22:50:32;27.52;;;13.93;;
57055;SDS011;42945;51.718;5.324;2022-08-25T22:56:33;28.50;;;12.83;;
57055;SDS011;42945;51.718;5.324;2022-08-25T23:02:23;18.90;;;9.82;;
57055;SDS011;42945;51.718;5.324;2022-08-25T23:12:15;19.83;;;9.35;;
57055;SDS011;42945;51.718;5.324;2022-08-25T23:18:02;19.85;;;7.85;;
57055;SDS011;42945;51.718;5.324;2022-08-25T23:23:50;17.05;;;6.53;;
57055;SDS011;42945;51.718;5.324;2022-08-25T23:29:39;15.15;;;6.55;;
57055;SDS011;42945;51.718;5.324;2022-08-25T23:35:30;16.45;;;9.25;;
57055;SDS011;42945;51.718;5.324;2022-08-25T23:41:20;10.63;;;4.25;;
57055;SDS011;42945;51.718;5.324;2022-08-25T23:47:10;12.48;;;3.95;;
57055;SDS011;42945;51.718;5.324;2022-08-25T23:52:57;16.17;;;4.23;;
57055;SDS011;42945;51.718;5.324;2022-08-25T23:58:45;9.35;;;3.85;;
